sensor_id;sensor_type;location;lat;lon;timestamp;pressure;altitude;pressure_sealevel;temperature;humidity
35121;BME280;21297;52.008;4.576;2024-03-23T00:53:50;44979.63;;;-143.47;85.94
35121;BME280;21297;52.008;4.576;2024-03-23T00:56:35;44956.06;;;-143.47;85.22
35121;BME280;21297;52.008;4.576;2024-03-23T00:59:21;44967.84;;;-143.47;85.57
35121;BME280;21297;52.008;4.576;2024-03-23T01:02:07;44948.22;;;-143.47;85.03
35121;BME280;21297;52.008;4.576;2024-03-23T01:04:53;44963.94;;;-143.47;86.29
35121;BME280;21297;52.008;4.576;2024-03-23T01:07:38;44971.78;;;-143.47;87.08
35121;BME280;21297;52.008;4.576;2024-03-23T01:10:24;44961.97;;;-143.47;86.67
35121;BME280;21297;52.008;4.576;2024-03-23T01:13:11;45007.16;;;-143.47;88.77
35121;BME280;21297;52.008;4.576;2024-03-23T01:15:56;44967.84;;;-143.47;88.39
35121;BME280;21297;52.008;4.576;2024-03-23T01:18:42;45028.75;;;-143.47;89.34
35121;BME280;21297;52.008;4.576;2024-03-23T01:21:28;45001.25;;;-143.47;90.98
35121;BME280;21297;52.008;4.576;2024-03-23T01:24:13;45034.66;;;-143.47;91.43
35121;BME280;21297;52.008;4.576;2024-03-23T01:27:00;45058.22;;;-143.47;92.01
35121;BME280;21297;52.008;4.576;2024-03-23T01:29:45;45003.22;;;-143.47;90.88
35121;BME280;21297;52.008;4.576;2024-03-23T01:32:31;45005.19;;;-143.47;90.03
35121;BME280;21297;52.008;4.576;2024-03-23T01:35:16;44991.44;;;-143.47;89.68
35121;BME280;21297;52.008;4.576;2024-03-23T01:38:02;45013.03;;;-143.47;89.85
35121;BME280;21297;52.008;4.576;2024-03-23T01:40:47;45001.25;;;-143.47;90.17
35121;BME280;21297;52.008;4.576;2024-03-23T01:43:33;44995.34;;;-143.47;89.53
35121;BME280;21297;52.008;4.576;2024-03-23T01:46:18;45013.03;;;-143.47;88.71
35121;BME280;21297;52.008;4.576;2024-03-23T01:49:05;44967.84;;;-143.47;87.43
35121;BME280;21297;52.008;4.576;2024-03-23T01:51:50;44985.53;;;-143.47;86.02
35121;BME280;21297;52.008;4.576;2024-03-23T01:54:36;44960.00;;;-143.47;86.11
35121;BME280;21297;52.008;4.576;2024-03-23T01:57:22;44979.63;;;-143.47;85.12
35121;BME280;21297;52.008;4.576;2024-03-23T02:00:07;44975.72;;;-143.47;83.53
35121;BME280;21297;52.008;4.576;2024-03-23T02:02:54;44948.22;;;-143.47;80.78
35121;BME280;21297;52.008;4.576;2024-03-23T02:05:41;44965.88;;;-143.47;79.80
35121;BME280;21297;52.008;4.576;2024-03-23T02:08:26;44934.47;;;-143.47;78.69
35121;BME280;21297;52.008;4.576;2024-03-23T02:11:12;44948.22;;;-143.47;78.25
35121;BME280;21297;52.008;4.576;2024-03-23T02:13:57;44942.31;;;-143.47;78.25
35121;BME280;21297;52.008;4.576;2024-03-23T02:16:43;44975.72;;;-143.47;77.88
35121;BME280;21297;52.008;4.576;2024-03-23T02:19:29;44934.47;;;-143.47;78.65
35121;BME280;21297;52.008;4.576;2024-03-23T02:22:14;44948.22;;;-143.47;78.16
35121;BME280;21297;52.008;4.576;2024-03-23T02:25:01;44961.97;;;-143.47;79.11
35121;BME280;21297;52.008;4.576;2024-03-23T02:27:48;44948.22;;;-143.47;78.51
35121;BME280;21297;52.008;4.576;2024-03-23T02:30:33;44938.38;;;-143.47;78.97
35121;BME280;21297;52.008;4.576;2024-03-23T02:33:19;44926.59;;;-143.47;78.51
35121;BME280;21297;52.008;4.576;2024-03-23T02:36:04;44979.63;;;-143.47;78.62
35121;BME280;21297;52.008;4.576;2024-03-23T02:38:50;44967.84;;;-143.47;78.79
35121;BME280;21297;52.008;4.576;2024-03-23T02:41:36;44956.06;;;-143.47;79.42
35121;BME280;21297;52.008;4.576;2024-03-23T02:44:22;44958.03;;;-143.47;79.07
35121;BME280;21297;52.008;4.576;2024-03-23T02:47:07;44946.25;;;-143.47;78.67
35121;BME280;21297;52.008;4.576;2024-03-23T02:49:53;44967.84;;;-143.47;78.81
35121;BME280;21297;52.008;4.576;2024-03-23T02:52:39;44958.03;;;-143.47;78.40
35121;BME280;21297;52.008;4.576;2024-03-23T02:55:25;44965.88;;;-143.47;78.60
35121;BME280;21297;52.008;4.576;2024-03-23T02:58:10;44948.22;;;-143.47;77.95
35121;BME280;21297;52.008;4.576;2024-03-23T03:00:56;44944.28;;;-143.47;77.27
35121;BME280;21297;52.008;4.576;2024-03-23T03:03:42;44944.28;;;-143.47;77.17
35121;BME280;21297;52.008;4.576;2024-03-23T03:06:27;44924.63;;;-143.47;76.60
35121;BME280;21297;52.008;4.576;2024-03-23T03:09:13;44930.53;;;-143.47;75.65
35121;BME280;21297;52.008;4.576;2024-03-23T03:11:58;44958.03;;;-143.47;75.37
35121;BME280;21297;52.008;4.576;2024-03-23T03:14:44;44926.59;;;-143.47;75.09
35121;BME280;21297;52.008;4.576;2024-03-23T03:17:29;44920.72;;;-143.47;74.89
35121;BME280;21297;52.008;4.576;2024-03-23T03:20:15;44922.66;;;-143.47;74.86
35121;BME280;21297;52.008;4.576;2024-03-23T03:23:02;44908.91;;;-143.47;74.68
35121;BME280;21297;52.008;4.576;2024-03-23T03:25:48;44928.56;;;-143.47;74.55
35121;BME280;21297;52.008;4.576;2024-03-23T03:28:34;44932.50;;;-143.47;74.05
35121;BME280;21297;52.008;4.576;2024-03-23T03:31:20;44946.25;;;-143.47;74.15
35121;BME280;21297;52.008;4.576;2024-03-23T03:34:06;44948.22;;;-143.47;75.08
35121;BME280;21297;52.008;4.576;2024-03-23T03:36:51;44928.56;;;-143.47;74.68
35121;BME280;21297;52.008;4.576;2024-03-23T03:39:37;44960.00;;;-143.47;74.79
35121;BME280;21297;52.008;4.576;2024-03-23T03:42:22;44910.88;;;-143.47;74.05
35121;BME280;21297;52.008;4.576;2024-03-23T03:45:08;44963.94;;;-143.47;73.00
35121;BME280;21297;52.008;4.576;2024-03-23T03:47:54;44960.00;;;-143.47;72.50
35121;BME280;21297;52.008;4.576;2024-03-23T03:50:39;44934.47;;;-143.47;71.38
35121;BME280;21297;52.008;4.576;2024-03-23T03:53:25;44922.66;;;-143.47;70.93
35121;BME280;21297;52.008;4.576;2024-03-23T03:56:10;44920.72;;;-143.47;71.76
35121;BME280;21297;52.008;4.576;2024-03-23T03:58:56;44956.06;;;-143.47;72.11
35121;BME280;21297;52.008;4.576;2024-03-23T04:01:41;44942.31;;;-143.47;71.93
35121;BME280;21297;52.008;4.576;2024-03-23T04:04:27;44918.75;;;-143.47;72.59
35121;BME280;21297;52.008;4.576;2024-03-23T04:07:12;44932.50;;;-143.47;72.47
35121;BME280;21297;52.008;4.576;2024-03-23T04:09:58;44956.06;;;-143.47;72.10
35121;BME280;21297;52.008;4.576;2024-03-23T04:12:44;44960.00;;;-143.47;71.67
35121;BME280;21297;52.008;4.576;2024-03-23T04:15:30;44952.13;;;-143.47;70.89
35121;BME280;21297;52.008;4.576;2024-03-23T04:18:15;44948.22;;;-143.47;71.47
35121;BME280;21297;52.008;4.576;2024-03-23T04:21:01;44928.56;;;-143.47;71.76
35121;BME280;21297;52.008;4.576;2024-03-23T04:23:46;44956.06;;;-143.47;71.13
35121;BME280;21297;52.008;4.576;2024-03-23T04:26:41;44926.59;;;-143.47;71.47
35121;BME280;21297;52.008;4.576;2024-03-23T04:29:27;44903.03;;;-143.47;71.23
35121;BME280;21297;52.008;4.576;2024-03-23T04:32:12;44924.63;;;-143.47;70.59
35121;BME280;21297;52.008;4.576;2024-03-23T04:34:59;44958.03;;;-143.47;71.17
35121;BME280;21297;52.008;4.576;2024-03-23T04:37:44;44918.75;;;-143.47;71.24
35121;BME280;21297;52.008;4.576;2024-03-23T04:40:30;44948.22;;;-143.47;71.60
35121;BME280;21297;52.008;4.576;2024-03-23T04:43:16;44928.56;;;-143.47;72.27
35121;BME280;21297;52.008;4.576;2024-03-23T04:46:01;44920.72;;;-143.47;71.88
35121;BME280;21297;52.008;4.576;2024-03-23T04:48:47;44930.53;;;-143.47;72.02
35121;BME280;21297;52.008;4.576;2024-03-23T04:51:36;44926.59;;;-143.47;71.71
35121;BME280;21297;52.008;4.576;2024-03-23T04:54:23;44920.72;;;-143.47;72.55
35121;BME280;21297;52.008;4.576;2024-03-23T04:57:08;44936.41;;;-143.47;73.00
35121;BME280;21297;52.008;4.576;2024-03-23T04:59:54;44936.41;;;-143.47;73.09
35121;BME280;21297;52.008;4.576;2024-03-23T05:02:39;44918.75;;;-143.47;74.09
35121;BME280;21297;52.008;4.576;2024-03-23T05:05:25;44922.66;;;-143.47;74.54
35121;BME280;21297;52.008;4.576;2024-03-23T05:08:10;44944.28;;;-143.47;75.21
35121;BME280;21297;52.008;4.576;2024-03-23T05:10:56;44963.94;;;-143.47;75.81
35121;BME280;21297;52.008;4.576;2024-03-23T05:13:41;44932.50;;;-143.47;75.53
35121;BME280;21297;52.008;4.576;2024-03-23T05:16:27;44969.81;;;-143.47;75.69
35121;BME280;21297;52.008;4.576;2024-03-23T05:19:13;44944.28;;;-143.47;75.24
35121;BME280;21297;52.008;4.576;2024-03-23T05:21:59;44940.34;;;-143.47;75.32
35121;BME280;21297;52.008;4.576;2024-03-23T05:24:45;44920.72;;;-143.47;75.19
35121;BME280;21297;52.008;4.576;2024-03-23T05:27:33;44946.25;;;-143.47;76.69
35121;BME280;21297;52.008;4.576;2024-03-23T05:30:19;44965.88;;;-143.47;76.96
35121;BME280;21297;52.008;4.576;2024-03-23T05:33:05;44946.25;;;-143.47;75.97
35121;BME280;21297;52.008;4.576;2024-03-23T05:36:00;44924.63;;;-143.47;74.81
35121;BME280;21297;52.008;4.576;2024-03-23T05:38:48;44956.06;;;-143.47;73.57
35121;BME280;21297;52.008;4.576;2024-03-23T05:41:34;44924.63;;;-143.47;72.50
35121;BME280;21297;52.008;4.576;2024-03-23T05:44:21;44930.53;;;-143.47;73.04
35121;BME280;21297;52.008;4.576;2024-03-23T05:47:08;44914.81;;;-143.47;73.93
35121;BME280;21297;52.008;4.576;2024-03-23T05:49:53;44942.31;;;-143.47;73.78
35121;BME280;21297;52.008;4.576;2024-03-23T05:52:39;44924.63;;;-143.47;74.45
35121;BME280;21297;52.008;4.576;2024-03-23T05:55:25;44960.00;;;-143.47;74.85
35121;BME280;21297;52.008;4.576;2024-03-23T05:58:11;44936.41;;;-143.47;75.76
35121;BME280;21297;52.008;4.576;2024-03-23T06:01:00;44981.59;;;-143.47;76.42
35121;BME280;21297;52.008;4.576;2024-03-23T06:03:46;44936.41;;;-143.47;76.57
35121;BME280;21297;52.008;4.576;2024-03-23T06:06:32;44954.09;;;-143.47;75.03
35121;BME280;21297;52.008;4.576;2024-03-23T06:09:18;44965.88;;;-143.47;75.49
35121;BME280;21297;52.008;4.576;2024-03-23T06:12:03;44961.97;;;-143.47;74.70
35121;BME280;21297;52.008;4.576;2024-03-23T06:14:49;44950.16;;;-143.47;75.04
35121;BME280;21297;52.008;4.576;2024-03-23T06:17:35;44940.34;;;-143.47;74.93
35121;BME280;21297;52.008;4.576;2024-03-23T06:20:20;44922.66;;;-143.47;74.10
35121;BME280;21297;52.008;4.576;2024-03-23T06:23:06;44934.47;;;-143.47;75.50
35121;BME280;21297;52.008;4.576;2024-03-23T06:25:51;44956.06;;;-143.47;74.75
35121;BME280;21297;52.008;4.576;2024-03-23T06:28:37;44922.66;;;-143.47;74.89
35121;BME280;21297;52.008;4.576;2024-03-23T06:31:22;44922.66;;;-143.47;74.21
35121;BME280;21297;52.008;4.576;2024-03-23T06:34:08;44930.53;;;-143.47;74.89
35121;BME280;21297;52.008;4.576;2024-03-23T06:36:53;44924.63;;;-143.47;73.84
35121;BME280;21297;52.008;4.576;2024-03-23T06:39:39;44948.22;;;-143.47;73.72
35121;BME280;21297;52.008;4.576;2024-03-23T06:42:25;44928.56;;;-143.47;73.27
35121;BME280;21297;52.008;4.576;2024-03-23T06:45:10;44932.50;;;-143.47;74.19
35121;BME280;21297;52.008;4.576;2024-03-23T06:47:56;44920.72;;;-143.47;73.73
35121;BME280;21297;52.008;4.576;2024-03-23T06:50:42;44932.50;;;-143.47;72.09
35121;BME280;21297;52.008;4.576;2024-03-23T06:53:28;44903.03;;;-143.47;70.84
35121;BME280;21297;52.008;4.576;2024-03-23T06:56:13;44936.41;;;-143.47;71.31
35121;BME280;21297;52.008;4.576;2024-03-23T06:58:59;44910.88;;;-143.47;71.30
35121;BME280;21297;52.008;4.576;2024-03-23T07:01:45;44916.78;;;-143.47;71.98
35121;BME280;21297;52.008;4.576;2024-03-23T07:04:30;44930.53;;;-143.47;72.73
35121;BME280;21297;52.008;4.576;2024-03-23T07:07:16;44954.09;;;-143.47;72.03
35121;BME280;21297;52.008;4.576;2024-03-23T07:10:02;44920.72;;;-143.47;71.32
35121;BME280;21297;52.008;4.576;2024-03-23T07:12:47;44928.56;;;-143.47;72.19
35121;BME280;21297;52.008;4.576;2024-03-23T07:15:33;44922.66;;;-143.47;71.77
35121;BME280;21297;52.008;4.576;2024-03-23T07:18:19;44922.66;;;-143.47;71.63
35121;BME280;21297;52.008;4.576;2024-03-23T07:21:04;44903.03;;;-143.47;70.07
35121;BME280;21297;52.008;4.576;2024-03-23T07:23:52;44936.41;;;-143.47;68.63
35121;BME280;21297;52.008;4.576;2024-03-23T07:26:37;44885.34;;;-143.47;68.57
35121;BME280;21297;52.008;4.576;2024-03-23T07:29:23;44903.03;;;-143.47;68.52
35121;BME280;21297;52.008;4.576;2024-03-23T07:32:08;44906.97;;;-143.47;69.02
35121;BME280;21297;52.008;4.576;2024-03-23T07:34:54;44873.56;;;-143.47;69.22
35121;BME280;21297;52.008;4.576;2024-03-23T07:37:41;44905.00;;;-143.47;70.31
35121;BME280;21297;52.008;4.576;2024-03-23T07:40:27;44936.41;;;-143.47;69.57
35121;BME280;21297;52.008;4.576;2024-03-23T07:43:13;44938.38;;;-143.47;70.87
35121;BME280;21297;52.008;4.576;2024-03-23T07:45:59;44918.75;;;-143.47;70.12
35121;BME280;21297;52.008;4.576;2024-03-23T07:48:44;44899.09;;;-143.47;69.93
35121;BME280;21297;52.008;4.576;2024-03-23T07:51:30;44901.06;;;-143.47;70.05
35121;BME280;21297;52.008;4.576;2024-03-23T07:54:15;44930.53;;;-143.47;70.72
35121;BME280;21297;52.008;4.576;2024-03-23T07:57:01;44914.81;;;-143.47;68.21
35121;BME280;21297;52.008;4.576;2024-03-23T07:59:46;44901.06;;;-143.47;68.17
35121;BME280;21297;52.008;4.576;2024-03-23T08:02:32;44912.84;;;-143.47;69.33
35121;BME280;21297;52.008;4.576;2024-03-23T08:05:18;44920.72;;;-143.47;68.74
35121;BME280;21297;52.008;4.576;2024-03-23T08:08:03;44897.13;;;-143.47;68.78
35121;BME280;21297;52.008;4.576;2024-03-23T08:10:49;44901.06;;;-143.47;67.25
35121;BME280;21297;52.008;4.576;2024-03-23T08:13:35;44885.34;;;-143.47;66.16
35121;BME280;21297;52.008;4.576;2024-03-23T08:16:21;44889.28;;;-143.47;66.46
35121;BME280;21297;52.008;4.576;2024-03-23T08:19:07;44895.16;;;-143.47;67.13
35121;BME280;21297;52.008;4.576;2024-03-23T08:21:54;44897.13;;;-143.47;65.63
35121;BME280;21297;52.008;4.576;2024-03-23T08:24:39;44897.13;;;-143.47;67.31
35121;BME280;21297;52.008;4.576;2024-03-23T08:27:25;44914.81;;;-143.47;66.82
35121;BME280;21297;52.008;4.576;2024-03-23T08:30:10;44889.28;;;-143.47;66.50
35121;BME280;21297;52.008;4.576;2024-03-23T08:32:56;44881.41;;;-143.47;66.44
35121;BME280;21297;52.008;4.576;2024-03-23T08:35:42;44883.38;;;-143.47;65.52
35121;BME280;21297;52.008;4.576;2024-03-23T08:38:27;44889.28;;;-143.47;64.83
35121;BME280;21297;52.008;4.576;2024-03-23T08:41:13;44905.00;;;-143.47;65.58
35121;BME280;21297;52.008;4.576;2024-03-23T08:43:59;44924.63;;;-143.47;63.75
35121;BME280;21297;52.008;4.576;2024-03-23T08:46:46;44912.84;;;-143.47;61.78
35121;BME280;21297;52.008;4.576;2024-03-23T08:49:32;44901.06;;;-143.47;62.42
35121;BME280;21297;52.008;4.576;2024-03-23T08:52:17;44897.13;;;-143.47;64.20
35121;BME280;21297;52.008;4.576;2024-03-23T08:55:03;44916.78;;;-143.47;64.85
35121;BME280;21297;52.008;4.576;2024-03-23T08:57:49;44922.66;;;-143.47;70.05
35121;BME280;21297;52.008;4.576;2024-03-23T09:00:35;44912.84;;;-143.47;71.16
35121;BME280;21297;52.008;4.576;2024-03-23T09:03:20;44910.88;;;-143.47;70.87
35121;BME280;21297;52.008;4.576;2024-03-23T09:06:06;44918.75;;;-143.47;69.76
35121;BME280;21297;52.008;4.576;2024-03-23T09:08:52;44936.41;;;-143.47;67.92
35121;BME280;21297;52.008;4.576;2024-03-23T09:11:38;44879.47;;;-143.47;64.25
35121;BME280;21297;52.008;4.576;2024-03-23T09:14:23;44895.16;;;-143.47;64.78
35121;BME280;21297;52.008;4.576;2024-03-23T09:17:09;44873.56;;;-143.47;63.77
35121;BME280;21297;52.008;4.576;2024-03-23T09:19:56;44865.69;;;-143.47;62.75
35121;BME280;21297;52.008;4.576;2024-03-23T09:22:41;44875.53;;;-143.47;63.30
35121;BME280;21297;52.008;4.576;2024-03-23T09:25:27;44875.53;;;-143.47;64.07
35121;BME280;21297;52.008;4.576;2024-03-23T09:28:13;44865.69;;;-143.47;62.90
35121;BME280;21297;52.008;4.576;2024-03-23T09:31:04;44905.00;;;-143.47;59.42
35121;BME280;21297;52.008;4.576;2024-03-23T09:33:50;44893.22;;;-143.47;62.04
35121;BME280;21297;52.008;4.576;2024-03-23T09:36:36;44897.13;;;-143.47;60.81
35121;BME280;21297;52.008;4.576;2024-03-23T09:39:22;44928.56;;;-143.47;63.05
35121;BME280;21297;52.008;4.576;2024-03-23T09:42:07;44889.28;;;-143.47;61.35
35121;BME280;21297;52.008;4.576;2024-03-23T09:44:53;44889.28;;;-143.47;62.44
35121;BME280;21297;52.008;4.576;2024-03-23T09:47:39;44901.06;;;-143.47;61.58
35121;BME280;21297;52.008;4.576;2024-03-23T09:50:25;44857.84;;;-143.47;61.93
35121;BME280;21297;52.008;4.576;2024-03-23T09:53:11;44873.56;;;-143.47;62.53
35121;BME280;21297;52.008;4.576;2024-03-23T09:55:57;44859.81;;;-143.47;61.51
35121;BME280;21297;52.008;4.576;2024-03-23T09:58:42;44883.38;;;-143.47;62.41
35121;BME280;21297;52.008;4.576;2024-03-23T10:01:29;44871.59;;;-143.47;62.21
35121;BME280;21297;52.008;4.576;2024-03-23T10:07:19;44881.41;;;-143.47;60.86
35121;BME280;21297;52.008;4.576;2024-03-23T10:10:10;44899.09;;;-143.47;61.66
35121;BME280;21297;52.008;4.576;2024-03-23T10:12:56;44857.84;;;-143.47;61.00
35121;BME280;21297;52.008;4.576;2024-03-23T10:15:41;44850.00;;;-143.47;61.29
35121;BME280;21297;52.008;4.576;2024-03-23T10:18:27;44863.75;;;-143.47;60.90
35121;BME280;21297;52.008;4.576;2024-03-23T10:21:14;44873.56;;;-143.47;62.90
35121;BME280;21297;52.008;4.576;2024-03-23T10:24:07;44887.31;;;-143.47;61.70
35121;BME280;21297;52.008;4.576;2024-03-23T10:26:56;44861.78;;;-143.47;61.44
35121;BME280;21297;52.008;4.576;2024-03-23T10:29:42;44853.91;;;-143.47;60.07
35121;BME280;21297;52.008;4.576;2024-03-23T10:32:28;44844.09;;;-143.47;59.90
35121;BME280;21297;52.008;4.576;2024-03-23T10:35:22;44885.34;;;-143.47;59.52
35121;BME280;21297;52.008;4.576;2024-03-23T10:38:08;44869.63;;;-143.47;59.95
35121;BME280;21297;52.008;4.576;2024-03-23T10:40:53;44853.91;;;-143.47;60.89
35121;BME280;21297;52.008;4.576;2024-03-23T10:43:40;44867.66;;;-143.47;58.44
35121;BME280;21297;52.008;4.576;2024-03-23T10:46:25;44850.00;;;-143.47;57.26
35121;BME280;21297;52.008;4.576;2024-03-23T10:49:12;44867.66;;;-143.47;55.89
35121;BME280;21297;52.008;4.576;2024-03-23T10:52:07;44850.00;;;-143.47;56.72
35121;BME280;21297;52.008;4.576;2024-03-23T10:54:52;44867.66;;;-143.47;55.65
35121;BME280;21297;52.008;4.576;2024-03-23T10:57:41;44887.31;;;-143.47;56.17
35121;BME280;21297;52.008;4.576;2024-03-23T11:00:28;44857.84;;;-143.47;55.91
35121;BME280;21297;52.008;4.576;2024-03-23T11:09:41;44863.75;;;-143.47;57.61
35121;BME280;21297;52.008;4.576;2024-03-23T11:12:30;44877.50;;;-143.47;59.60
35121;BME280;21297;52.008;4.576;2024-03-23T11:15:19;44869.63;;;-143.47;57.55
35121;BME280;21297;52.008;4.576;2024-03-23T11:18:05;44853.91;;;-143.47;56.83
35121;BME280;21297;52.008;4.576;2024-03-23T11:20:51;44855.88;;;-143.47;57.16
35121;BME280;21297;52.008;4.576;2024-03-23T11:23:37;44873.56;;;-143.47;57.90
35121;BME280;21297;52.008;4.576;2024-03-23T11:26:22;44853.91;;;-143.47;56.53
35121;BME280;21297;52.008;4.576;2024-03-23T11:29:13;44834.28;;;-143.47;56.87
35121;BME280;21297;52.008;4.576;2024-03-23T11:31:59;44840.16;;;-143.47;57.22
35121;BME280;21297;52.008;4.576;2024-03-23T11:34:46;44879.47;;;-143.47;55.84
35121;BME280;21297;52.008;4.576;2024-03-23T11:37:32;44855.88;;;-143.47;55.01
35121;BME280;21297;52.008;4.576;2024-03-23T11:40:18;44861.78;;;-143.47;56.08
35121;BME280;21297;52.008;4.576;2024-03-23T11:43:04;44844.09;;;-143.47;57.53
35121;BME280;21297;52.008;4.576;2024-03-23T11:45:51;44834.28;;;-143.47;57.13
35121;BME280;21297;52.008;4.576;2024-03-23T11:48:40;44881.41;;;-143.47;55.73
35121;BME280;21297;52.008;4.576;2024-03-23T11:51:26;44850.00;;;-143.47;57.13
35121;BME280;21297;52.008;4.576;2024-03-23T11:54:11;44871.59;;;-143.47;57.05
35121;BME280;21297;52.008;4.576;2024-03-23T11:56:57;44826.41;;;-143.47;55.27
35121;BME280;21297;52.008;4.576;2024-03-23T11:59:43;44842.13;;;-143.47;56.72
35121;BME280;21297;52.008;4.576;2024-03-23T12:02:29;44877.50;;;-143.47;57.14
35121;BME280;21297;52.008;4.576;2024-03-23T12:05:18;44861.78;;;-143.47;52.90
35121;BME280;21297;52.008;4.576;2024-03-23T12:08:24;44828.38;;;-143.47;54.22
35121;BME280;21297;52.008;4.576;2024-03-23T12:11:16;44869.63;;;-143.47;57.01
35121;BME280;21297;52.008;4.576;2024-03-23T12:14:01;44861.78;;;-143.47;56.98
35121;BME280;21297;52.008;4.576;2024-03-23T12:16:47;44863.75;;;-143.47;54.67
35121;BME280;21297;52.008;4.576;2024-03-23T12:19:33;44826.41;;;-143.47;57.98
35121;BME280;21297;52.008;4.576;2024-03-23T12:22:21;44850.00;;;-143.47;56.72
35121;BME280;21297;52.008;4.576;2024-03-23T12:25:07;44834.28;;;-143.47;55.04
35121;BME280;21297;52.008;4.576;2024-03-23T12:27:52;44855.88;;;-143.47;56.54
35121;BME280;21297;52.008;4.576;2024-03-23T12:30:38;44842.13;;;-143.47;57.98
35121;BME280;21297;52.008;4.576;2024-03-23T12:33:25;44850.00;;;-143.47;59.88
35121;BME280;21297;52.008;4.576;2024-03-23T12:36:10;44899.09;;;-143.47;61.13
35121;BME280;21297;52.008;4.576;2024-03-23T12:38:56;44869.63;;;-143.47;58.81
35121;BME280;21297;52.008;4.576;2024-03-23T12:41:42;44850.00;;;-143.47;60.19
35121;BME280;21297;52.008;4.576;2024-03-23T12:44:28;44897.13;;;-143.47;61.29
35121;BME280;21297;52.008;4.576;2024-03-23T12:47:13;44861.78;;;-143.47;61.77
35121;BME280;21297;52.008;4.576;2024-03-23T12:49:59;44851.94;;;-143.47;60.50
35121;BME280;21297;52.008;4.576;2024-03-23T12:52:44;44863.75;;;-143.47;61.06
35121;BME280;21297;52.008;4.576;2024-03-23T12:55:30;44877.50;;;-143.47;62.60
35121;BME280;21297;52.008;4.576;2024-03-23T12:58:16;44846.06;;;-143.47;63.11
35121;BME280;21297;52.008;4.576;2024-03-23T13:01:01;44879.47;;;-143.47;63.77
35121;BME280;21297;52.008;4.576;2024-03-23T13:03:47;44869.63;;;-143.47;64.21
35121;BME280;21297;52.008;4.576;2024-03-23T13:06:33;44875.53;;;-143.47;63.71
35121;BME280;21297;52.008;4.576;2024-03-23T13:09:19;44838.19;;;-143.47;60.78
35121;BME280;21297;52.008;4.576;2024-03-23T13:12:05;44861.78;;;-143.47;60.26
35121;BME280;21297;52.008;4.576;2024-03-23T13:14:50;44857.84;;;-143.47;58.89
35121;BME280;21297;52.008;4.576;2024-03-23T13:17:36;44840.16;;;-143.47;58.84
35121;BME280;21297;52.008;4.576;2024-03-23T13:20:22;44875.53;;;-143.47;55.53
35121;BME280;21297;52.008;4.576;2024-03-23T13:23:07;44853.91;;;-143.47;54.03
35121;BME280;21297;52.008;4.576;2024-03-23T13:25:54;44863.75;;;-143.47;54.05
35121;BME280;21297;52.008;4.576;2024-03-23T13:28:40;44826.41;;;-143.47;54.19
35121;BME280;21297;52.008;4.576;2024-03-23T13:31:26;44820.53;;;-143.47;53.57
35121;BME280;21297;52.008;4.576;2024-03-23T13:34:12;44851.94;;;-143.47;53.03
35121;BME280;21297;52.008;4.576;2024-03-23T13:37:00;44869.63;;;-143.47;53.71
35121;BME280;21297;52.008;4.576;2024-03-23T13:39:46;44859.81;;;-143.47;54.08
35121;BME280;21297;52.008;4.576;2024-03-23T13:42:31;44861.78;;;-143.47;55.22
35121;BME280;21297;52.008;4.576;2024-03-23T13:45:17;44865.69;;;-143.47;55.98
35121;BME280;21297;52.008;4.576;2024-03-23T13:48:02;44863.75;;;-143.47;57.71
35121;BME280;21297;52.008;4.576;2024-03-23T13:50:59;44859.81;;;-143.47;58.40
35121;BME280;21297;52.008;4.576;2024-03-23T13:53:44;44861.78;;;-143.47;57.54
35121;BME280;21297;52.008;4.576;2024-03-23T13:56:31;44846.06;;;-143.47;57.22
35121;BME280;21297;52.008;4.576;2024-03-23T13:59:16;44879.47;;;-143.47;59.95
35121;BME280;21297;52.008;4.576;2024-03-23T14:02:02;44836.25;;;-143.47;61.43
35121;BME280;21297;52.008;4.576;2024-03-23T14:04:48;44842.13;;;-143.47;58.16
35121;BME280;21297;52.008;4.576;2024-03-23T14:07:33;44891.25;;;-143.47;59.90
35121;BME280;21297;52.008;4.576;2024-03-23T14:10:19;44851.94;;;-143.47;59.09
35121;BME280;21297;52.008;4.576;2024-03-23T14:13:05;44875.53;;;-143.47;59.26
35121;BME280;21297;52.008;4.576;2024-03-23T14:15:53;44834.28;;;-143.47;58.10
35121;BME280;21297;52.008;4.576;2024-03-23T14:18:39;44857.84;;;-143.47;58.92
35121;BME280;21297;52.008;4.576;2024-03-23T14:21:24;44859.81;;;-143.47;61.16
35121;BME280;21297;52.008;4.576;2024-03-23T14:24:10;44867.66;;;-143.47;64.33
35121;BME280;21297;52.008;4.576;2024-03-23T14:26:56;44869.63;;;-143.47;67.06
35121;BME280;21297;52.008;4.576;2024-03-23T14:29:41;44857.84;;;-143.47;68.93
35121;BME280;21297;52.008;4.576;2024-03-23T14:32:27;44865.69;;;-143.47;67.37
35121;BME280;21297;52.008;4.576;2024-03-23T14:35:14;44838.19;;;-143.47;65.14
35121;BME280;21297;52.008;4.576;2024-03-23T14:37:59;44824.44;;;-143.47;65.38
35121;BME280;21297;52.008;4.576;2024-03-23T14:40:45;44838.19;;;-143.47;63.78
35121;BME280;21297;52.008;4.576;2024-03-23T14:43:31;44826.41;;;-143.47;63.83
35121;BME280;21297;52.008;4.576;2024-03-23T14:46:17;44850.00;;;-143.47;63.49
35121;BME280;21297;52.008;4.576;2024-03-23T14:49:03;44853.91;;;-143.47;64.26
35121;BME280;21297;52.008;4.576;2024-03-23T14:51:49;44840.16;;;-143.47;64.78
35121;BME280;21297;52.008;4.576;2024-03-23T14:54:35;44879.47;;;-143.47;64.75
35121;BME280;21297;52.008;4.576;2024-03-23T14:57:20;44848.03;;;-143.47;62.18
35121;BME280;21297;52.008;4.576;2024-03-23T15:00:07;44863.75;;;-143.47;61.11
35121;BME280;21297;52.008;4.576;2024-03-23T15:02:53;44842.13;;;-143.47;61.69
35121;BME280;21297;52.008;4.576;2024-03-23T15:05:38;44844.09;;;-143.47;54.68
35121;BME280;21297;52.008;4.576;2024-03-23T15:08:24;44840.16;;;-143.47;54.77
35121;BME280;21297;52.008;4.576;2024-03-23T15:11:09;44828.38;;;-143.47;55.86
35121;BME280;21297;52.008;4.576;2024-03-23T15:13:55;44857.84;;;-143.47;56.89
35121;BME280;21297;52.008;4.576;2024-03-23T15:16:40;44844.09;;;-143.47;54.33
35121;BME280;21297;52.008;4.576;2024-03-23T15:19:27;44840.16;;;-143.47;53.96